Time;durP1;ratioP1;P1;durP2;ratioP2;P2;SDS_P1;SDS_P2;PMS_P1;PMS_P2;Temp;Humidity;BMP_temperature;BMP_pressure;BME280_temperature;BME280_humidity;BME280_pressure;Samples;Min_cycle;Max_cycle;Signal;HPM_P1;HPM_P2
2023/08/12 00:01:39;;;;;;;9.07;3.22;;;;;;;21.95;100.00;101282.44;5036471;28;20053;-62
2023/08/12 00:04:06;;;;;;;8.30;4.10;;;;;;;;;;5034546;28;20049;-64
2023/08/12 00:06:33;;;;;;;7.07;3.17;;;;;;;21.82;100.00;101275.38;5034023;28;20057;-62
2023/08/12 00:09:01;;;;;;;8.98;3.53;;;;;;;21.92;100.00;101271.94;5035951;28;20056;-62
2023/08/12 00:11:28;;;;;;;7.35;3.50;;;;;;;22.00;100.00;101268.09;5052140;28;20053;-62
2023/08/12 00:13:55;;;;;;;7.38;3.40;;;;;;;21.99;100.00;101266.44;5055154;28;20045;-62
2023/08/12 00:16:23;;;;;;;10.57;3.85;;;;;;;22.06;100.00;101258.13;5055822;28;20056;-62
2023/08/12 00:18:50;;;;;;;8.13;3.53;;;;;;;22.04;100.00;101254.91;5054941;28;20053;-62
2023/08/12 00:21:18;;;;;;;7.05;3.53;;;;;;;22.12;100.00;101257.44;5056027;28;20056;-63
2023/08/12 00:23:47;;;;;;;8.52;3.45;;;;;;;21.97;100.00;101257.59;5055276;28;20048;-63
2023/08/12 00:26:14;;;;;;;9.77;3.50;;;;;;;21.78;100.00;101257.69;5055109;28;20432;-63
2023/08/12 00:28:42;;;;;;;7.57;3.60;;;;;;;21.87;100.00;101258.25;5050913;28;20287;-63
2023/08/12 00:31:09;;;;;;;9.40;3.15;;;;;;;21.88;100.00;101249.44;5071770;28;20056;-62
2023/08/12 00:33:37;;;;;;;7.18;3.10;;;;;;;21.92;100.00;101246.69;5062890;28;20055;-62
2023/08/12 00:36:04;;;;;;;9.23;3.22;;;;;;;21.87;100.00;101249.81;5053818;28;20057;-62
2023/08/12 00:38:32;;;;;;;7.72;3.20;;;;;;;21.85;100.00;101244.59;5051162;28;20048;-63
2023/08/12 00:40:59;;;;;;;7.80;3.63;;;;;;;21.80;100.00;101246.91;5052721;28;20057;-62
2023/08/12 00:43:27;;;;;;;8.68;3.67;;;;;;;21.83;100.00;101240.53;5051574;28;20049;-63
2023/08/12 00:45:54;;;;;;;9.05;3.80;;;;;;;21.83;100.00;101237.72;5048988;28;20428;-63
2023/08/12 00:48:23;;;;;;;8.93;3.42;;;;;;;21.79;100.00;101242.50;5052930;28;20053;-62
2023/08/12 00:50:50;;;;;;;10.68;3.80;;;;;;;21.77;100.00;101242.84;5053944;28;20389;-62
2023/08/12 00:53:17;;;;;;;8.60;3.47;;;;;;;21.79;100.00;101240.47;5036479;28;20060;-62
2023/08/12 00:55:46;;;;;;;10.40;3.90;;;;;;;21.83;100.00;101252.56;5049398;28;20041;-62
2023/08/12 00:58:13;;;;;;;9.80;4.57;;;;;;;21.92;100.00;101247.50;5033101;28;20520;-62
2023/08/12 01:00:41;;;;;;;9.73;3.67;;;;;;;21.83;100.00;101246.97;5021216;28;20061;-62
2023/08/12 01:03:09;;;;;;;12.30;3.85;;;;;;;21.85;100.00;101235.38;5054269;28;20053;-63
2023/08/12 01:05:36;;;;;;;9.63;3.85;;;;;;;21.84;100.00;101237.38;5036945;28;20049;-62
2023/08/12 01:08:07;;;;;;;8.95;4.10;;;;;;;21.85;100.00;101246.59;5053139;28;20052;-66
2023/08/12 01:10:37;;;;;;;8.45;3.75;;;;;;;21.86;100.00;101240.59;5054032;28;20511;-62
2023/08/12 01:13:29;;;;;;;9.57;3.83;;;;;;;21.69;100.00;101220.69;5053201;28;20063;-62
2023/08/12 01:15:58;;;;;;;9.70;4.15;;;;;;;21.70;100.00;101219.47;5052888;28;20053;-62
2023/08/12 01:18:26;;;;;;;8.63;4.45;;;;;;;21.79;100.00;101231.28;5026393;28;20069;-63
2023/08/12 01:20:53;;;;;;;8.13;3.80;;;;;;;21.72;100.00;101240.34;5042453;28;20063;-63
2023/08/12 01:23:21;;;;;;;10.75;4.57;;;;;;;21.70;100.00;101239.09;5052320;28;20060;-62
2023/08/12 01:25:48;;;;;;;10.75;4.60;;;;;;;21.71;100.00;101237.91;5052612;28;20052;-62
2023/08/12 01:28:16;;;;;;;7.72;4.30;;;;;;;21.67;100.00;101223.03;5052145;28;20496;-62
2023/08/12 01:30:52;;;;;;;8.40;4.43;;;;;;;21.63;100.00;101217.38;5068137;28;20049;-62
2023/08/12 01:34:01;;;;;;;9.77;4.43;;;;;;;21.65;100.00;101228.22;5073568;28;20056;-62
2023/08/12 01:36:29;;;;;;;11.82;4.15;;;;;;;21.70;100.00;101225.91;5043209;28;20045;-63
2023/08/12 01:38:57;;;;;;;8.10;4.03;;;;;;;21.56;100.00;101222.88;5049305;28;20121;-63
2023/08/12 01:41:25;;;;;;;9.02;3.53;;;;;;;21.44;100.00;101219.44;5032616;28;20559;-63
2023/08/12 01:43:52;;;;;;;8.43;4.00;;;;;;;21.32;100.00;101223.25;5041526;28;20068;-61
2023/08/12 01:46:21;;;;;;;9.63;4.10;;;;;;;21.37;100.00;101217.34;5052472;28;20037;-63
2023/08/12 01:48:48;;;;;;;7.95;3.75;;;;;;;21.50;100.00;101224.34;5035410;28;20049;-63
2023/08/12 01:51:17;;;;;;;7.47;3.78;;;;;;;21.48;100.00;101218.31;5018985;28;20056;-62
2023/08/12 01:53:44;;;;;;;8.27;3.58;;;;;;;21.50;100.00;101209.50;5049865;28;20041;-63
2023/08/12 01:56:12;;;;;;;7.32;3.35;;;;;;;21.35;100.00;101197.28;5032404;28;20045;-62
2023/08/12 01:58:39;;;;;;;7.45;3.50;;;;;;;21.35;100.00;101194.47;5016104;28;20497;-62
2023/08/12 02:01:07;;;;;;;8.70;3.00;;;;;;;21.37;100.00;101194.09;5048693;28;20056;-62
2023/08/12 02:03:34;;;;;;;9.27;3.08;;;;;;;21.41;100.00;101206.19;5033316;28;20045;-62
2023/08/12 02:06:02;;;;;;;6.35;2.85;;;;;;;21.33;100.00;101205.25;5033840;28;20519;-62
2023/08/12 02:08:29;;;;;;;7.35;2.92;;;;;;;21.40;100.00;101194.16;5019305;28;20049;-63
2023/08/12 02:10:56;;;;;;;5.60;2.78;;;;;;;21.32;100.00;101200.84;5033953;28;20053;-62
2023/08/12 02:13:24;;;;;;;6.43;3.00;;;;;;;21.41;100.00;101192.16;4999787;28;20049;-62
2023/08/12 02:15:51;;;;;;;6.78;2.78;;;;;;;21.40;100.00;101202.56;5033414;28;20468;-62
2023/08/12 02:18:19;;;;;;;5.93;2.90;;;;;;;21.37;100.00;101191.28;5025935;28;20057;-62
2023/08/12 02:20:49;;;;;;;5.28;2.30;;;;;;;21.33;100.00;101196.00;5040463;28;20087;-63
2023/08/12 02:23:16;;;;;;;6.32;2.60;;;;;;;21.38;100.00;101195.69;5053445;28;20057;-62
2023/08/12 02:25:44;;;;;;;6.88;2.63;;;;;;;21.35;100.00;101200.06;5052441;28;20068;-61
2023/08/12 02:28:12;;;;;;;6.43;2.67;;;;;;;21.41;100.00;101197.78;5053056;28;20044;-62
2023/08/12 02:30:42;;;;;;;5.28;2.22;;;;;;;21.45;100.00;101204.22;5067352;28;20052;-62
2023/08/12 02:33:12;;;;;;;8.32;2.53;;;;;;;21.43;100.00;101203.81;5042577;28;20057;-63
2023/08/12 02:35:39;;;;;;;4.35;2.40;;;;;;;21.43;100.00;101201.03;5043791;28;20053;-62
2023/08/12 02:38:07;;;;;;;5.85;2.60;;;;;;;21.46;100.00;101189.03;5053185;28;20059;-61
2023/08/12 02:40:36;;;;;;;5.00;2.35;;;;;;;21.43;100.00;101193.41;5051698;28;20060;-62
2023/08/12 02:43:04;;;;;;;5.13;2.25;;;;;;;21.39;100.00;101186.94;5047288;28;20056;-63
2023/08/12 02:45:32;;;;;;;5.43;2.22;;;;;;;21.43;100.00;101195.41;5052825;28;20400;-63
2023/08/12 02:47:59;;;;;;;5.80;2.13;;;;;;;21.51;100.00;101197.94;5035518;28;20057;-62
2023/08/12 02:50:26;;;;;;;3.58;1.80;;;;;;;21.38;100.00;101193.72;5051768;28;20119;-62
2023/08/12 02:52:54;;;;;;;4.05;1.70;;;;;;;21.42;100.00;101194.59;5053618;28;20064;-62
2023/08/12 02:55:21;;;;;;;3.50;1.60;;;;;;;21.34;100.00;101192.03;5034573;28;20057;-62
2023/08/12 02:57:48;;;;;;;3.78;1.85;;;;;;;21.44;100.00;101191.41;5052042;28;20045;-62
2023/08/12 03:00:16;;;;;;;4.25;1.55;;;;;;;21.47;100.00;101193.44;5048297;28;20057;-62
2023/08/12 03:02:44;;;;;;;5.63;1.40;;;;;;;21.42;100.00;101190.97;5054942;28;20056;-61
2023/08/12 03:05:11;;;;;;;4.10;1.50;;;;;;;21.41;100.00;101187.34;5055435;28;20049;-63
2023/08/12 03:07:39;;;;;;;2.80;1.25;;;;;;;21.45;100.00;101187.41;5056979;28;20044;-62
2023/08/12 03:10:07;;;;;;;2.70;1.35;;;;;;;21.39;100.00;101188.94;5056803;28;20048;-62
2023/08/12 03:12:35;;;;;;;3.70;1.52;;;;;;;21.33;100.00;101187.59;5055557;28;20045;-62
2023/08/12 03:15:03;;;;;;;3.72;1.50;;;;;;;21.40;100.00;101188.53;5054325;28;20041;-62
2023/08/12 03:17:31;;;;;;;2.10;1.25;;;;;;;21.45;100.00;101185.44;5040333;28;20053;-62
2023/08/12 03:20:04;;;;;;;3.30;1.10;;;;;;;21.51;100.00;101183.94;5037227;28;20053;-62
2023/08/12 03:22:32;;;;;;;2.22;1.33;;;;;;;21.47;100.00;101176.63;5055316;28;20080;-63
2023/08/12 03:24:59;;;;;;;4.28;1.40;;;;;;;21.49;100.00;101180.69;5062915;28;20064;-63
2023/08/12 03:27:27;;;;;;;3.50;1.30;;;;;;;21.52;100.00;101179.13;5054608;28;20057;-62
2023/08/12 03:29:54;;;;;;;2.38;1.40;;;;;;;21.55;100.00;101176.38;5061188;28;20641;-63
2023/08/12 03:32:22;;;;;;;2.45;1.27;;;;;;;21.55;100.00;101170.75;5056507;28;20045;-63
2023/08/12 03:34:49;;;;;;;3.17;1.33;;;;;;;21.58;100.00;101175.66;5050680;28;20045;-62
2023/08/12 03:37:18;;;;;;;2.13;1.00;;;;;;;21.49;100.00;101172.28;5038519;28;20049;-62
2023/08/12 03:39:47;;;;;;;3.88;1.50;;;;;;;21.42;100.00;101172.16;5054703;28;20063;-63
2023/08/12 03:42:16;;;;;;;1.52;1.00;;;;;;;21.42;100.00;101169.38;5021259;28;20060;-62
2023/08/12 03:44:44;;;;;;;2.13;1.30;;;;;;;21.40;100.00;101168.13;5037916;28;20060;-62
2023/08/12 03:47:11;;;;;;;3.00;1.20;;;;;;;21.37;100.00;101169.69;5038497;28;20057;-62
2023/08/12 03:49:40;;;;;;;2.22;1.13;;;;;;;21.27;100.00;101161.88;5050086;28;20472;-62
2023/08/12 03:52:08;;;;;;;2.60;1.20;;;;;;;21.39;100.00;101167.31;5055086;28;20448;-61
2023/08/12 03:54:36;;;;;;;3.55;1.33;;;;;;;21.35;100.00;101160.03;5054672;28;20049;-62
2023/08/12 03:57:03;;;;;;;2.47;1.10;;;;;;;21.36;100.00;101156.06;5056427;28;20049;-62
2023/08/12 03:59:31;;;;;;;2.83;1.35;;;;;;;21.29;100.00;101162.31;5055354;28;20057;-63
2023/08/12 04:01:59;;;;;;;2.58;1.17;;;;;;;21.42;100.00;101160.97;5054700;28;20037;-63
2023/08/12 04:04:27;;;;;;;1.90;0.98;;;;;;;21.43;100.00;101154.16;5056010;28;20049;-62
2023/08/12 04:06:54;;;;;;;1.65;0.98;;;;;;;21.43;100.00;101150.56;5051551;28;20052;-63
2023/08/12 04:09:22;;;;;;;2.28;1.10;;;;;;;21.49;100.00;101155.47;5054430;28;20060;-63
2023/08/12 04:11:49;;;;;;;2.70;0.95;;;;;;;21.50;100.00;101143.06;5056574;28;20068;-61
2023/08/12 04:14:18;;;;;;;2.38;0.93;;;;;;;21.56;100.00;101137.94;5055598;28;20067;-63
2023/08/12 04:16:45;;;;;;;3.22;1.08;;;;;;;21.49;100.00;101130.25;5053720;28;20033;-62
2023/08/12 04:19:13;;;;;;;2.10;0.73;;;;;;;21.52;100.00;101137.88;5036886;28;20049;-62
2023/08/12 04:21:40;;;;;;;1.55;0.80;;;;;;;21.56;100.00;101138.75;5055281;28;20060;-62
2023/08/12 04:24:08;;;;;;;2.72;0.95;;;;;;;21.58;100.00;101129.97;5059164;28;20052;-62
2023/08/12 04:26:35;;;;;;;3.58;0.70;;;;;;;21.54;100.00;101131.91;5054553;28;20045;-62
2023/08/12 04:29:03;;;;;;;0.50;0.50;;;;;;;21.58;100.00;101141.19;5054804;28;20045;-62
2023/08/12 04:31:32;;;;;;;1.75;0.90;;;;;;;21.47;100.00;101131.78;5074054;28;20044;-62
2023/08/12 04:34:02;;;;;;;1.73;0.90;;;;;;;21.40;100.00;101126.88;5057566;28;20530;-61
2023/08/12 04:36:32;;;;;;;3.25;0.80;;;;;;;21.56;100.00;101123.94;5054866;28;20057;-62
2023/08/12 04:39:02;;;;;;;1.52;0.90;;;;;;;21.36;100.00;101128.03;5049708;28;20040;-62
2023/08/12 04:41:33;;;;;;;2.15;0.82;;;;;;;21.42;100.00;101130.13;5053422;28;20408;-62
2023/08/12 04:44:02;;;;;;;1.95;0.80;;;;;;;21.37;100.00;101127.66;5037262;28;20060;-62
2023/08/12 04:46:31;;;;;;;1.80;1.00;;;;;;;21.32;100.00;101127.97;5053417;28;20040;-60
2023/08/12 04:48:59;;;;;;;1.55;0.80;;;;;;;21.42;100.00;101135.72;5053726;28;20058;-63
2023/08/12 04:51:27;;;;;;;2.60;1.00;;;;;;;21.34;100.00;101136.00;5038105;28;20053;-62
2023/08/12 04:53:54;;;;;;;2.10;0.95;;;;;;;21.41;100.00;101138.91;5054714;28;20061;-62
2023/08/12 04:56:21;;;;;;;1.35;0.82;;;;;;;21.33;100.00;101132.38;5050077;28;20144;-62
2023/08/12 04:58:49;;;;;;;2.60;0.88;;;;;;;21.42;100.00;101137.72;5037260;28;20060;-61
2023/08/12 05:01:18;;;;;;;3.03;0.98;;;;;;;21.54;100.00;101141.13;5052886;28;20056;-62
2023/08/12 05:03:45;;;;;;;1.65;0.90;;;;;;;21.46;100.00;101132.97;5054350;28;20041;-62
2023/08/12 05:06:13;;;;;;;1.25;0.80;;;;;;;21.51;100.00;101135.47;5053154;28;20045;-62
2023/08/12 05:08:40;;;;;;;1.48;1.05;;;;;;;21.46;100.00;101131.00;5053324;28;20496;-61
2023/08/12 05:11:07;;;;;;;5.22;0.88;;;;;;;21.39;100.00;101133.69;5052990;28;20049;-62
2023/08/12 05:13:35;;;;;;;3.25;0.80;;;;;;;21.36;100.00;101133.63;5020917;28;20060;-62
2023/08/12 05:16:03;;;;;;;3.92;1.00;;;;;;;21.50;100.00;101129.03;5052978;28;20048;-62
2023/08/12 05:18:31;;;;;;;2.97;1.05;;;;;;;21.56;100.00;101132.34;5053912;28;20052;-62
2023/08/12 05:20:59;;;;;;;5.35;1.10;;;;;;;21.34;100.00;101136.00;5052371;28;20057;-62
2023/08/12 05:23:27;;;;;;;2.90;0.98;;;;;;;21.29;100.00;101139.91;5039425;28;20051;-63
2023/08/12 05:25:54;;;;;;;4.03;1.10;;;;;;;21.42;100.00;101143.31;5056694;28;20049;-62
2023/08/12 05:28:21;;;;;;;2.50;1.00;;;;;;;21.44;100.00;101147.38;5049270;28;20049;-62
2023/08/12 05:30:49;;;;;;;3.83;1.10;;;;;;;21.36;100.00;101150.44;5067388;28;20045;-63
2023/08/12 05:33:16;;;;;;;2.72;1.25;;;;;;;21.28;100.00;101143.91;5073864;28;20045;-62
2023/08/12 05:35:47;;;;;;;1.88;0.93;;;;;;;21.40;100.00;101143.72;5061985;28;20064;-62
2023/08/12 05:38:14;;;;;;;3.08;0.80;;;;;;;21.44;100.00;101140.97;5052399;28;20055;-62
2023/08/12 05:40:42;;;;;;;5.40;0.80;;;;;;;21.44;100.00;101141.78;5052602;28;20074;-62
2023/08/12 05:43:09;;;;;;;2.22;0.90;;;;;;;21.48;100.00;101144.63;5054059;28;20045;-62
2023/08/12 05:45:36;;;;;;;1.63;1.00;;;;;;;21.46;100.00;101156.22;5051278;28;20064;-62
2023/08/12 05:48:04;;;;;;;4.00;1.05;;;;;;;21.52;100.00;101160.31;5019450;28;20049;-63
2023/08/12 05:50:32;;;;;;;4.20;1.15;;;;;;;21.39;100.00;101161.72;5022986;28;20412;-62
2023/08/12 05:52:59;;;;;;;4.25;1.10;;;;;;;21.46;100.00;101163.81;5032350;28;20057;-62
2023/08/12 05:55:27;;;;;;;2.30;1.10;;;;;;;21.58;100.00;101152.41;5032150;28;20045;-62
2023/08/12 05:57:54;;;;;;;1.35;0.80;;;;;;;21.55;100.00;101153.94;5033613;28;20056;-62
2023/08/12 06:00:22;;;;;;;1.80;1.00;;;;;;;21.51;100.00;101153.09;5032721;28;20053;-63
2023/08/12 06:02:49;;;;;;;2.40;1.13;;;;;;;21.47;100.00;101157.84;5033731;28;20056;-63
2023/08/12 06:05:19;;;;;;;4.38;1.20;;;;;;;21.60;100.00;101150.81;5048062;28;20056;-62
2023/08/12 06:07:46;;;;;;;4.22;2.25;;;;;;;21.65;100.00;101153.31;5053514;28;20068;-62
2023/08/12 06:10:13;;;;;;;9.50;6.65;;;;;;;21.85;100.00;101154.84;5052192;28;20036;-63
2023/08/12 06:12:41;;;;;;;5.53;2.50;;;;;;;21.67;100.00;101152.94;5053524;28;20451;-62
2023/08/12 06:15:08;;;;;;;4.60;1.48;;;;;;;21.72;100.00;101149.81;5052190;28;20053;-62
2023/08/12 06:17:36;;;;;;;3.40;0.98;;;;;;;21.59;100.00;101156.81;5050982;28;20143;-62
2023/08/12 06:20:03;;;;;;;2.88;0.90;;;;;;;21.62;100.00;101148.44;5042121;28;20041;-65
2023/08/12 06:22:31;;;;;;;5.32;1.20;;;;;;;21.66;100.00;101148.50;5015016;28;20054;-62
2023/08/12 06:24:58;;;;;;;3.38;1.20;;;;;;;21.77;100.00;101155.09;5057724;28;20427;-62
2023/08/12 06:27:26;;;;;;;3.65;1.38;;;;;;;21.59;100.00;101149.22;5049926;28;20048;-63
2023/08/12 06:29:53;;;;;;;5.00;1.30;;;;;;;21.64;100.00;101157.28;5060918;28;20056;-62
2023/08/12 06:32:21;;;;;;;2.42;1.00;;;;;;;21.51;100.00;101155.91;5071449;28;20056;-63
2023/08/12 06:34:48;;;;;;;4.88;1.60;;;;;;;21.54;100.00;101149.53;5069573;28;20049;-62
2023/08/12 06:37:15;;;;;;;2.25;1.10;;;;;;;21.41;100.00;101153.72;5051098;28;20053;-61
2023/08/12 06:39:43;;;;;;;3.78;1.00;;;;;;;21.55;100.00;101153.16;5057614;28;20045;-62
2023/08/12 06:42:10;;;;;;;1.83;1.00;;;;;;;21.58;100.00;101155.19;5057155;28;20436;-62
2023/08/12 06:44:38;;;;;;;3.05;1.02;;;;;;;21.61;100.00;101158.06;5038885;28;20049;-62
2023/08/12 06:47:06;;;;;;;4.20;1.40;;;;;;;21.47;100.00;101154.22;5056497;28;20052;-63
2023/08/12 06:49:33;;;;;;;2.08;0.85;;;;;;;21.55;100.00;101153.16;5055717;28;20045;-62
2023/08/12 06:52:00;;;;;;;3.05;0.93;;;;;;;21.70;100.00;101146.56;5056308;28;20052;-61
2023/08/12 06:54:28;;;;;;;2.33;1.08;;;;;;;21.74;100.00;101139.81;5057178;28;20049;-62
2023/08/12 06:56:55;;;;;;;3.55;1.05;;;;;;;21.96;100.00;101141.78;5018262;28;20049;-63
2023/08/12 06:59:23;;;;;;;2.88;1.00;;;;;;;21.80;100.00;101154.34;5037163;28;20057;-62
2023/08/12 07:01:50;;;;;;;3.33;1.08;;;;;;;21.88;100.00;101159.69;5036460;28;20413;-63
2023/08/12 07:04:17;;;;;;;6.75;1.05;;;;;;;21.97;100.00;101154.59;5036931;28;20061;-62
2023/08/12 07:06:47;;;;;;;3.10;1.00;;;;;;;21.75;100.00;101149.88;5043134;28;20041;-62
2023/08/12 07:09:15;;;;;;;1.73;0.73;;;;;;;21.83;100.00;101162.00;5039340;28;20508;-63
2023/08/12 07:11:42;;;;;;;2.35;1.00;;;;;;;21.97;100.00;101165.00;5038357;28;20056;-63
2023/08/12 07:14:10;;;;;;;1.23;0.80;;;;;;;22.05;100.00;101163.94;5052693;28;20053;-63
2023/08/12 07:16:37;;;;;;;4.93;1.05;;;;;;;21.74;100.00;101167.84;5056693;28;20049;-61
2023/08/12 07:19:05;;;;;;;4.15;1.00;;;;;;;22.00;100.00;101158.66;5055981;28;20492;-63
2023/08/12 07:21:32;;;;;;;2.50;1.13;;;;;;;21.98;100.00;101161.84;5056432;28;20558;-62
2023/08/12 07:23:59;;;;;;;3.17;0.80;;;;;;;21.87;100.00;101165.69;5056914;28;20714;-63
2023/08/12 07:26:31;;;;;;;1.27;0.93;;;;;;;21.37;100.00;101191.28;5039332;28;20068;-62
2023/08/12 07:28:58;;;;;;;2.50;0.60;;;;;;;19.91;100.00;101192.28;5052062;28;20037;-62
2023/08/12 07:31:25;;;;;;;1.40;0.70;;;;;;;19.35;100.00;101202.13;5036184;28;20046;-62
2023/08/12 07:33:53;;;;;;;2.88;0.82;;;;;;;19.11;100.00;101205.03;5036310;28;20057;-62
2023/08/12 07:36:20;;;;;;;2.92;1.00;;;;;;;19.12;100.00;101212.25;5053040;28;20053;-62
2023/08/12 07:38:47;;;;;;;2.88;0.68;;;;;;;18.65;100.00;101234.50;5054880;28;20052;-62
2023/08/12 07:41:15;;;;;;;4.15;0.93;;;;;;;18.58;100.00;101231.50;5056206;28;20049;-64
2023/08/12 07:43:42;;;;;;;3.92;0.88;;;;;;;18.58;100.00;101230.69;5055671;28;20048;-64
2023/08/12 07:46:10;;;;;;;7.47;1.60;;;;;;;18.64;100.00;101235.66;5034291;28;20056;-62
2023/08/12 07:48:38;;;;;;;8.00;1.90;;;;;;;18.58;100.00;101234.28;5055494;28;20060;-63
2023/08/12 07:51:05;;;;;;;7.22;1.70;;;;;;;18.34;100.00;101239.09;5046935;28;20053;-63
2023/08/12 07:53:33;;;;;;;7.18;1.75;;;;;;;18.26;100.00;101242.81;5055811;28;20063;-62
2023/08/12 07:56:00;;;;;;;6.10;1.73;;;;;;;18.43;100.00;101243.38;5055950;28;20053;-62
2023/08/12 07:58:28;;;;;;;8.00;2.03;;;;;;;18.43;100.00;101232.22;5055937;28;20503;-63
2023/08/12 08:00:55;;;;;;;7.22;1.98;;;;;;;18.54;100.00;101241.72;5055488;28;20053;-63
2023/08/12 08:03:22;;;;;;;5.57;1.65;;;;;;;18.76;100.00;101251.50;5049874;28;20128;-63
2023/08/12 08:05:50;;;;;;;6.03;1.65;;;;;;;18.80;100.00;101258.84;5055885;28;20045;-62
2023/08/12 08:08:18;;;;;;;4.30;1.67;;;;;;;18.64;100.00;101263.56;5038176;28;20056;-62
2023/08/12 08:10:45;;;;;;;7.13;1.67;;;;;;;18.81;100.00;101251.28;5055829;28;20649;-62
2023/08/12 08:13:13;;;;;;;10.50;1.85;;;;;;;18.84;100.00;101256.97;5053382;28;20053;-63
2023/08/12 08:15:40;;;;;;;7.57;1.70;;;;;;;18.98;100.00;101249.00;5055839;28;20060;-63
2023/08/12 08:18:07;;;;;;;6.97;1.65;;;;;;;19.12;100.00;101248.56;5051513;28;20547;-63
2023/08/12 08:20:35;;;;;;;6.63;2.00;;;;;;;19.02;100.00;101244.31;5041289;28;20048;-63
2023/08/12 08:23:02;;;;;;;10.68;2.10;;;;;;;19.05;100.00;101240.00;5054105;28;20060;-63
2023/08/12 08:25:30;;;;;;;4.70;1.80;;;;;;;19.50;100.00;101243.22;5050798;28;20061;-63
2023/08/12 08:27:57;;;;;;;6.72;1.77;;;;;;;19.41;100.00;101239.78;5050373;28;20048;-63
2023/08/12 08:30:25;;;;;;;11.52;2.15;;;;;;;19.74;100.00;101242.19;5066323;28;20048;-63
2023/08/12 08:32:53;;;;;;;5.82;1.70;;;;;;;19.70;100.00;101239.31;5074772;28;20060;-63
2023/08/12 08:35:20;;;;;;;6.07;1.80;;;;;;;20.07;100.00;101249.00;5062396;28;20568;-63
2023/08/12 08:37:48;;;;;;;5.82;1.95;;;;;;;20.21;100.00;101256.16;5055317;28;20052;-62
2023/08/12 08:40:15;;;;;;;8.25;2.20;;;;;;;20.13;100.00;101250.38;5054008;28;20060;-62
2023/08/12 08:42:46;;;;;;;9.53;2.80;;;;;;;20.19;100.00;101252.91;5053421;28;20165;-63
2023/08/12 08:45:15;;;;;;;9.48;2.10;;;;;;;20.38;100.00;101255.72;5035051;28;20305;-63
2023/08/12 08:47:42;;;;;;;9.98;2.47;;;;;;;20.55;100.00;101249.69;5051079;28;20500;-63
2023/08/12 08:50:10;;;;;;;8.65;2.03;;;;;;;20.38;100.00;101250.13;5037333;28;20041;-62
2023/08/12 08:52:38;;;;;;;7.32;2.35;;;;;;;20.00;100.00;101248.84;5054880;28;20057;-63
2023/08/12 08:55:06;;;;;;;8.77;2.17;;;;;;;19.83;100.00;101254.84;5050706;28;20120;-62
2023/08/12 08:57:36;;;;;;;8.98;2.40;;;;;;;20.15;100.00;101247.19;5036065;28;20055;-63
2023/08/12 09:00:15;;;;;;;6.60;2.05;;;;;;;20.41;100.00;101249.38;5053741;28;20063;-63
2023/08/12 09:02:48;;;;;;;;;;;;;;;20.80;100.00;101251.81;5054593;28;20079;-63
2023/08/12 09:05:16;;;;;;;8.65;2.13;;;;;;;21.07;100.00;101250.81;5054456;28;19932;-63
2023/08/12 09:07:45;;;;;;;8.48;1.90;;;;;;;21.07;100.00;101250.00;5051828;28;20046;-63
2023/08/12 09:10:13;;;;;;;7.55;2.20;;;;;;;21.53;99.54;101256.44;5051718;28;20055;-63
2023/08/12 09:12:43;;;;;;;8.23;2.40;;;;;;;21.50;96.22;101246.78;5034797;28;20057;-62
2023/08/12 09:15:10;;;;;;;9.63;2.28;;;;;;;21.32;97.33;101251.28;5046097;28;20079;-64
2023/08/12 09:17:38;;;;;;;6.65;1.90;;;;;;;21.57;97.41;101257.28;5036688;28;20053;-64
2023/08/12 09:20:11;;;;;;;9.15;2.17;;;;;;;21.68;96.98;101242.28;5054283;28;20052;-64
2023/08/12 09:22:40;;;;;;;7.07;1.90;;;;;;;21.66;95.49;101257.84;5054673;28;20052;-62
2023/08/12 09:25:09;;;;;;;8.02;2.30;;;;;;;21.44;95.12;101255.88;5054059;28;20045;-63
2023/08/12 09:27:39;;;;;;;6.95;1.92;;;;;;;21.27;93.43;101254.34;5050200;28;20045;-63
2023/08/12 09:30:08;;;;;;;7.07;1.73;;;;;;;21.07;94.01;101255.59;5063592;28;20044;-63
2023/08/12 09:32:38;;;;;;;8.02;1.92;;;;;;;20.75;95.14;101248.50;5073836;28;20590;-64
2023/08/12 09:35:10;;;;;;;7.68;2.20;;;;;;;20.99;95.57;101260.25;5068044;28;20528;-63
2023/08/12 09:37:38;;;;;;;7.25;1.70;;;;;;;21.18;92.60;101256.63;5052886;28;20067;-63
2023/08/12 09:40:06;;;;;;;7.03;2.22;;;;;;;21.58;91.39;101261.72;5052759;28;20057;-62
2023/08/12 09:42:34;;;;;;;9.73;1.88;;;;;;;21.36;89.93;101259.75;5053851;28;20049;-64
2023/08/12 09:45:01;;;;;;;6.75;2.08;;;;;;;21.21;90.97;101267.06;5052739;28;20060;-63
2023/08/12 09:47:28;;;;;;;8.50;2.08;;;;;;;21.53;91.99;101256.44;5052882;28;20053;-62
2023/08/12 09:49:59;;;;;;;4.72;1.60;;;;;;;21.37;90.73;101275.38;5052730;28;20127;-62
2023/08/12 09:52:27;;;;;;;9.20;2.08;;;;;;;21.45;92.39;101277.09;5053842;28;20060;-63
2023/08/12 09:54:56;;;;;;;10.77;1.83;;;;;;;21.42;90.37;101278.69;5052499;28;20057;-62
2023/08/12 09:57:25;;;;;;;6.47;1.90;;;;;;;21.37;92.59;101278.16;5047414;28;20049;-63
2023/08/12 09:59:53;;;;;;;4.82;1.52;;;;;;;21.60;90.79;101279.00;5033512;28;20809;-62
2023/08/12 10:02:21;;;;;;;7.32;1.70;;;;;;;21.38;93.48;101277.78;5050049;28;20064;-63
2023/08/12 10:04:50;;;;;;;5.28;1.63;;;;;;;21.66;91.58;101277.47;5052609;28;20822;-63
2023/08/12 10:07:19;;;;;;;6.70;2.03;;;;;;;21.67;92.04;101270.72;5052791;28;20049;-63
2023/08/12 10:09:46;;;;;;;10.20;1.83;;;;;;;21.40;90.93;101275.44;5053385;28;20488;-63
2023/08/12 10:12:15;;;;;;;6.55;1.88;;;;;;;21.36;92.19;101268.16;5052463;28;20049;-63
2023/08/12 10:14:47;;;;;;;6.13;1.88;;;;;;;21.40;91.97;101267.03;5053654;28;20049;-63
2023/08/12 10:17:14;;;;;;;6.50;1.80;;;;;;;21.38;90.89;101274.16;5051896;28;20036;-62
2023/08/12 10:19:57;;;;;;;8.85;1.90;;;;;;;21.16;90.76;101265.41;5032422;28;20527;-62
2023/08/12 10:22:25;;;;;;;11.20;2.15;;;;;;;21.03;91.97;101260.31;5052347;28;20061;-64
2023/08/12 10:24:53;;;;;;;7.35;1.58;;;;;;;21.23;91.02;101259.91;5056497;28;20057;-63
2023/08/12 10:27:20;;;;;;;7.35;1.70;;;;;;;21.25;91.37;101268.75;5042765;28;20061;-62
2023/08/12 10:29:47;;;;;;;6.68;1.90;;;;;;;21.48;91.11;101260.34;5058482;28;20040;-63
2023/08/12 10:32:15;;;;;;;8.32;1.63;;;;;;;21.44;90.81;101264.28;5055393;28;20393;-63
2023/08/12 10:34:42;;;;;;;7.50;1.65;;;;;;;21.58;88.83;101256.94;5068732;28;20075;-62
2023/08/12 10:37:13;;;;;;;5.72;1.50;;;;;;;21.60;89.01;101260.16;5032422;28;20076;-62
2023/08/12 10:39:40;;;;;;;4.75;1.35;;;;;;;21.64;89.43;101263.84;5032928;28;20053;-63
2023/08/12 10:42:08;;;;;;;5.25;1.40;;;;;;;21.70;89.29;101261.53;5034234;28;20393;-63
2023/08/12 10:44:57;;;;;;;6.68;2.25;;;;;;;21.83;88.99;101263.78;5048091;28;20459;-64
2023/08/12 10:47:34;;;;;;;5.18;1.50;;;;;;;22.28;86.28;101258.06;5053232;28;20140;-63
2023/08/12 10:50:02;;;;;;;6.05;1.52;;;;;;;22.38;85.09;101265.03;5051016;28;20056;-63
2023/08/12 10:52:30;;;;;;;6.97;1.90;;;;;;;22.21;84.80;101255.16;5047188;28;20049;-63
2023/08/12 10:55:18;;;;;;;9.00;2.00;;;;;;;22.45;85.20;101256.72;5053342;28;20049;-63
2023/08/12 10:57:46;;;;;;;6.45;1.98;;;;;;;22.44;84.06;101262.72;5053153;28;20053;-62
2023/08/12 11:00:16;;;;;;;7.13;1.65;;;;;;;22.85;83.35;101251.25;5052170;28;20045;-62
2023/08/12 11:02:50;;;;;;;6.93;1.75;;;;;;;22.64;82.21;101252.97;5052978;28;20049;-62
2023/08/12 11:05:20;;;;;;;5.57;1.50;;;;;;;22.84;81.83;101249.59;5051431;28;20047;-64
2023/08/12 11:07:49;;;;;;;4.57;1.55;;;;;;;22.56;81.75;101262.50;5051921;28;20049;-62
2023/08/12 11:10:19;;;;;;;7.10;1.80;;;;;;;22.13;82.30;101256.25;5043874;28;20041;-62
2023/08/12 11:12:51;;;;;;;6.18;1.80;;;;;;;22.07;84.19;101248.56;5031897;28;20049;-63
2023/08/12 11:15:19;;;;;;;5.20;1.65;;;;;;;22.49;83.90;101235.09;5032698;28;20476;-62
2023/08/12 11:17:47;;;;;;;5.05;1.60;;;;;;;23.03;81.70;101241.00;5031553;28;20060;-63
2023/08/12 11:20:14;;;;;;;4.32;1.33;;;;;;;23.55;78.51;101231.50;5035232;28;20045;-62
2023/08/12 11:22:43;;;;;;;3.97;1.27;;;;;;;23.62;78.26;101227.94;5054600;28;20056;-63
2023/08/12 11:25:13;;;;;;;4.25;1.60;;;;;;;23.87;76.95;101223.34;5051307;28;20054;-62